sensor_id;sensor_type;location;lat;lon;timestamp;P1;durP1;ratioP1;P2;durP2;ratioP2
51901;SDS011;37929;53.218;6.548;2023-04-03T00:00:26;3.08;;;1.33;;
51901;SDS011;37929;53.218;6.548;2023-04-03T00:02:52;2.83;;;1.27;;
51901;SDS011;37929;53.218;6.548;2023-04-03T00:05:20;2.53;;;1.63;;
51901;SDS011;37929;53.218;6.548;2023-04-03T00:07:46;3.15;;;1.23;;
51901;SDS011;37929;53.218;6.548;2023-04-03T00:10:15;2.47;;;1.40;;
51901;SDS011;37929;53.218;6.548;2023-04-03T00:12:41;2.65;;;1.40;;
51901;SDS011;37929;53.218;6.548;2023-04-03T00:15:07;1.50;;;1.10;;
51901;SDS011;37929;53.218;6.548;2023-04-03T00:17:33;1.95;;;1.30;;
51901;SDS011;37929;53.218;6.548;2023-04-03T00:19:59;2.67;;;1.38;;
51901;SDS011;37929;53.218;6.548;2023-04-03T00:22:25;1.95;;;1.35;;
51901;SDS011;37929;53.218;6.548;2023-04-03T00:24:53;3.13;;;1.30;;
51901;SDS011;37929;53.218;6.548;2023-04-03T00:27:19;3.35;;;1.20;;
51901;SDS011;37929;53.218;6.548;2023-04-03T00:29:45;1.05;;;0.93;;
51901;SDS011;37929;53.218;6.548;2023-04-03T00:32:12;2.63;;;1.27;;
51901;SDS011;37929;53.218;6.548;2023-04-03T00:34:38;2.30;;;1.27;;
51901;SDS011;37929;53.218;6.548;2023-04-03T00:37:03;1.85;;;1.10;;
51901;SDS011;37929;53.218;6.548;2023-04-03T00:39:29;2.88;;;1.40;;
51901;SDS011;37929;53.218;6.548;2023-04-03T00:41:55;1.52;;;1.10;;
51901;SDS011;37929;53.218;6.548;2023-04-03T00:46:53;2.70;;;1.30;;
51901;SDS011;37929;53.218;6.548;2023-04-03T00:49:22;1.88;;;1.20;;
51901;SDS011;37929;53.218;6.548;2023-04-03T00:51:47;3.53;;;1.40;;
51901;SDS011;37929;53.218;6.548;2023-04-03T00:54:13;4.20;;;1.50;;
51901;SDS011;37929;53.218;6.548;2023-04-03T00:56:39;4.32;;;1.50;;
51901;SDS011;37929;53.218;6.548;2023-04-03T00:59:08;2.25;;;1.17;;
51901;SDS011;37929;53.218;6.548;2023-04-03T01:01:42;2.60;;;1.63;;
51901;SDS011;37929;53.218;6.548;2023-04-03T01:04:28;2.55;;;1.25;;
51901;SDS011;37929;53.218;6.548;2023-04-03T01:06:59;4.28;;;2.20;;
51901;SDS011;37929;53.218;6.548;2023-04-03T01:09:29;3.70;;;1.33;;
51901;SDS011;37929;53.218;6.548;2023-04-03T01:12:12;3.70;;;1.40;;
51901;SDS011;37929;53.218;6.548;2023-04-03T01:14:50;3.83;;;1.65;;
51901;SDS011;37929;53.218;6.548;2023-04-03T01:17:36;3.00;;;1.13;;
51901;SDS011;37929;53.218;6.548;2023-04-03T01:25:28;4.03;;;1.30;;
51901;SDS011;37929;53.218;6.548;2023-04-03T01:27:54;2.08;;;1.33;;
51901;SDS011;37929;53.218;6.548;2023-04-03T01:30:21;3.33;;;1.23;;
51901;SDS011;37929;53.218;6.548;2023-04-03T01:32:51;3.72;;;1.30;;
51901;SDS011;37929;53.218;6.548;2023-04-03T01:35:17;2.67;;;1.40;;
51901;SDS011;37929;53.218;6.548;2023-04-03T01:37:42;7.20;;;1.40;;
51901;SDS011;37929;53.218;6.548;2023-04-03T01:40:08;4.72;;;1.40;;
51901;SDS011;37929;53.218;6.548;2023-04-03T01:42:34;3.67;;;1.35;;
51901;SDS011;37929;53.218;6.548;2023-04-03T01:45:03;3.90;;;1.30;;
51901;SDS011;37929;53.218;6.548;2023-04-03T01:47:29;2.83;;;1.67;;
51901;SDS011;37929;53.218;6.548;2023-04-03T01:49:55;3.15;;;1.35;;
51901;SDS011;37929;53.218;6.548;2023-04-03T01:52:20;4.15;;;1.20;;
51901;SDS011;37929;53.218;6.548;2023-04-03T01:54:46;4.93;;;1.58;;
51901;SDS011;37929;53.218;6.548;2023-04-03T01:57:12;3.80;;;1.60;;
51901;SDS011;37929;53.218;6.548;2023-04-03T01:59:40;2.45;;;1.25;;
51901;SDS011;37929;53.218;6.548;2023-04-03T02:02:06;2.80;;;1.40;;
51901;SDS011;37929;53.218;6.548;2023-04-03T02:04:33;3.28;;;1.25;;
51901;SDS011;37929;53.218;6.548;2023-04-03T02:07:04;1.88;;;1.20;;
51901;SDS011;37929;53.218;6.548;2023-04-03T02:09:30;3.75;;;1.63;;
51901;SDS011;37929;53.218;6.548;2023-04-03T02:11:58;4.72;;;1.48;;
51901;SDS011;37929;53.218;6.548;2023-04-03T02:14:23;2.45;;;1.45;;
51901;SDS011;37929;53.218;6.548;2023-04-03T02:16:49;2.55;;;1.40;;
51901;SDS011;37929;53.218;6.548;2023-04-03T02:19:18;3.28;;;1.40;;
51901;SDS011;37929;53.218;6.548;2023-04-03T02:21:44;5.63;;;1.77;;
51901;SDS011;37929;53.218;6.548;2023-04-03T02:24:10;5.50;;;1.88;;
51901;SDS011;37929;53.218;6.548;2023-04-03T02:26:36;2.35;;;1.20;;
51901;SDS011;37929;53.218;6.548;2023-04-03T02:29:02;4.03;;;1.30;;
51901;SDS011;37929;53.218;6.548;2023-04-03T02:31:27;2.10;;;1.33;;
51901;SDS011;37929;53.218;6.548;2023-04-03T02:33:53;4.57;;;1.77;;
51901;SDS011;37929;53.218;6.548;2023-04-03T02:36:19;3.45;;;1.60;;
51901;SDS011;37929;53.218;6.548;2023-04-03T02:38:45;4.43;;;1.33;;
51901;SDS011;37929;53.218;6.548;2023-04-03T02:41:11;3.60;;;1.40;;
51901;SDS011;37929;53.218;6.548;2023-04-03T02:43:38;4.45;;;1.60;;
51901;SDS011;37929;53.218;6.548;2023-04-03T02:46:04;4.20;;;1.40;;
51901;SDS011;37929;53.218;6.548;2023-04-03T02:48:30;4.45;;;1.50;;
51901;SDS011;37929;53.218;6.548;2023-04-03T02:50:56;4.00;;;1.83;;
51901;SDS011;37929;53.218;6.548;2023-04-03T02:53:22;2.50;;;1.52;;
51901;SDS011;37929;53.218;6.548;2023-04-03T02:55:48;3.53;;;1.30;;
51901;SDS011;37929;53.218;6.548;2023-04-03T02:58:14;4.35;;;1.95;;
51901;SDS011;37929;53.218;6.548;2023-04-03T03:00:40;4.10;;;1.40;;
51901;SDS011;37929;53.218;6.548;2023-04-03T03:03:06;3.45;;;1.80;;
51901;SDS011;37929;53.218;6.548;2023-04-03T03:05:32;3.58;;;1.65;;
51901;SDS011;37929;53.218;6.548;2023-04-03T03:07:58;3.70;;;1.60;;
51901;SDS011;37929;53.218;6.548;2023-04-03T03:10:24;2.88;;;1.70;;
51901;SDS011;37929;53.218;6.548;2023-04-03T03:12:50;3.72;;;1.90;;
51901;SDS011;37929;53.218;6.548;2023-04-03T03:15:16;2.83;;;1.60;;
51901;SDS011;37929;53.218;6.548;2023-04-03T03:17:42;3.97;;;2.45;;
51901;SDS011;37929;53.218;6.548;2023-04-03T03:20:08;3.08;;;1.63;;
51901;SDS011;37929;53.218;6.548;2023-04-03T03:22:35;3.55;;;1.67;;
51901;SDS011;37929;53.218;6.548;2023-04-03T03:25:01;4.00;;;1.88;;
51901;SDS011;37929;53.218;6.548;2023-04-03T03:27:27;4.80;;;2.00;;
51901;SDS011;37929;53.218;6.548;2023-04-03T03:29:53;3.60;;;1.70;;
51901;SDS011;37929;53.218;6.548;2023-04-03T03:32:19;5.85;;;2.10;;
51901;SDS011;37929;53.218;6.548;2023-04-03T03:34:45;3.67;;;1.50;;
51901;SDS011;37929;53.218;6.548;2023-04-03T03:37:11;2.85;;;1.38;;
51901;SDS011;37929;53.218;6.548;2023-04-03T03:39:37;5.28;;;1.75;;
51901;SDS011;37929;53.218;6.548;2023-04-03T03:42:03;4.03;;;2.00;;
51901;SDS011;37929;53.218;6.548;2023-04-03T03:44:29;3.20;;;1.70;;
51901;SDS011;37929;53.218;6.548;2023-04-03T03:46:55;4.90;;;2.00;;
51901;SDS011;37929;53.218;6.548;2023-04-03T03:49:21;4.03;;;1.67;;
51901;SDS011;37929;53.218;6.548;2023-04-03T03:51:47;6.07;;;1.77;;
51901;SDS011;37929;53.218;6.548;2023-04-03T03:54:13;4.63;;;1.90;;
51901;SDS011;37929;53.218;6.548;2023-04-03T03:56:39;4.30;;;1.73;;
51901;SDS011;37929;53.218;6.548;2023-04-03T03:59:05;2.88;;;1.58;;
51901;SDS011;37929;53.218;6.548;2023-04-03T04:01:31;3.08;;;1.70;;
51901;SDS011;37929;53.218;6.548;2023-04-03T04:03:57;3.28;;;1.58;;
51901;SDS011;37929;53.218;6.548;2023-04-03T04:06:23;4.70;;;2.03;;
51901;SDS011;37929;53.218;6.548;2023-04-03T04:08:49;4.57;;;1.90;;
51901;SDS011;37929;53.218;6.548;2023-04-03T04:11:15;3.08;;;1.70;;
51901;SDS011;37929;53.218;6.548;2023-04-03T04:13:41;5.55;;;1.77;;
51901;SDS011;37929;53.218;6.548;2023-04-03T04:16:07;5.32;;;1.90;;
51901;SDS011;37929;53.218;6.548;2023-04-03T04:18:33;5.72;;;1.83;;
51901;SDS011;37929;53.218;6.548;2023-04-03T04:20:58;6.70;;;1.90;;
51901;SDS011;37929;53.218;6.548;2023-04-03T04:23:24;4.70;;;1.50;;
51901;SDS011;37929;53.218;6.548;2023-04-03T04:25:50;4.90;;;2.67;;
51901;SDS011;37929;53.218;6.548;2023-04-03T04:28:16;6.07;;;2.22;;
51901;SDS011;37929;53.218;6.548;2023-04-03T04:30:42;4.13;;;2.00;;
51901;SDS011;37929;53.218;6.548;2023-04-03T04:33:09;4.07;;;1.85;;
51901;SDS011;37929;53.218;6.548;2023-04-03T04:35:35;5.57;;;1.90;;
51901;SDS011;37929;53.218;6.548;2023-04-03T04:38:01;4.60;;;2.10;;
51901;SDS011;37929;53.218;6.548;2023-04-03T04:40:27;4.72;;;1.92;;
51901;SDS011;37929;53.218;6.548;2023-04-03T04:42:54;2.75;;;1.67;;
51901;SDS011;37929;53.218;6.548;2023-04-03T04:45:20;6.93;;;2.10;;
51901;SDS011;37929;53.218;6.548;2023-04-03T04:47:45;3.65;;;1.83;;
51901;SDS011;37929;53.218;6.548;2023-04-03T04:50:11;5.03;;;2.05;;
51901;SDS011;37929;53.218;6.548;2023-04-03T04:52:37;4.13;;;1.80;;
51901;SDS011;37929;53.218;6.548;2023-04-03T04:55:04;3.38;;;1.63;;
51901;SDS011;37929;53.218;6.548;2023-04-03T04:57:30;6.63;;;2.13;;
51901;SDS011;37929;53.218;6.548;2023-04-03T04:59:56;6.30;;;2.47;;
51901;SDS011;37929;53.218;6.548;2023-04-03T05:02:21;6.15;;;2.50;;
51901;SDS011;37929;53.218;6.548;2023-04-03T05:04:47;3.30;;;2.08;;
51901;SDS011;37929;53.218;6.548;2023-04-03T05:07:15;4.32;;;2.38;;
51901;SDS011;37929;53.218;6.548;2023-04-03T05:09:41;7.60;;;2.35;;
51901;SDS011;37929;53.218;6.548;2023-04-03T05:12:07;6.22;;;2.60;;
51901;SDS011;37929;53.218;6.548;2023-04-03T05:14:33;6.45;;;2.33;;
51901;SDS011;37929;53.218;6.548;2023-04-03T05:16:59;5.90;;;2.22;;
51901;SDS011;37929;53.218;6.548;2023-04-03T05:19:24;5.35;;;2.35;;
51901;SDS011;37929;53.218;6.548;2023-04-03T05:21:50;5.93;;;2.70;;
51901;SDS011;37929;53.218;6.548;2023-04-03T05:24:19;3.40;;;2.00;;
51901;SDS011;37929;53.218;6.548;2023-04-03T05:26:45;3.88;;;2.35;;
51901;SDS011;37929;53.218;6.548;2023-04-03T05:29:11;8.65;;;2.55;;
51901;SDS011;37929;53.218;6.548;2023-04-03T05:31:39;7.80;;;2.45;;
51901;SDS011;37929;53.218;6.548;2023-04-03T05:34:05;5.10;;;2.08;;
51901;SDS011;37929;53.218;6.548;2023-04-03T05:36:31;4.97;;;2.50;;
51901;SDS011;37929;53.218;6.548;2023-04-03T05:39:00;5.05;;;2.20;;
51901;SDS011;37929;53.218;6.548;2023-04-03T05:41:26;3.83;;;1.85;;
51901;SDS011;37929;53.218;6.548;2023-04-03T05:43:52;3.58;;;2.50;;
51901;SDS011;37929;53.218;6.548;2023-04-03T05:46:18;4.95;;;1.80;;
51901;SDS011;37929;53.218;6.548;2023-04-03T05:48:45;4.63;;;2.25;;
51901;SDS011;37929;53.218;6.548;2023-04-03T05:51:18;7.60;;;2.45;;
51901;SDS011;37929;53.218;6.548;2023-04-03T05:53:46;4.55;;;2.13;;
51901;SDS011;37929;53.218;6.548;2023-04-03T05:56:13;3.85;;;1.75;;
51901;SDS011;37929;53.218;6.548;2023-04-03T05:58:42;9.50;;;2.17;;
51901;SDS011;37929;53.218;6.548;2023-04-03T06:01:11;6.15;;;2.40;;
51901;SDS011;37929;53.218;6.548;2023-04-03T06:03:37;5.82;;;2.42;;
51901;SDS011;37929;53.218;6.548;2023-04-03T06:06:05;4.72;;;2.30;;
51901;SDS011;37929;53.218;6.548;2023-04-03T06:08:31;5.38;;;2.00;;
51901;SDS011;37929;53.218;6.548;2023-04-03T06:10:59;5.82;;;2.28;;
51901;SDS011;37929;53.218;6.548;2023-04-03T06:13:24;3.60;;;1.90;;
51901;SDS011;37929;53.218;6.548;2023-04-03T06:15:50;6.05;;;2.60;;
51901;SDS011;37929;53.218;6.548;2023-04-03T06:18:16;6.60;;;2.28;;
51901;SDS011;37929;53.218;6.548;2023-04-03T06:20:45;5.82;;;2.58;;
51901;SDS011;37929;53.218;6.548;2023-04-03T06:23:11;4.60;;;2.25;;
51901;SDS011;37929;53.218;6.548;2023-04-03T06:25:39;4.00;;;2.22;;
51901;SDS011;37929;53.218;6.548;2023-04-03T06:28:05;7.00;;;2.22;;
51901;SDS011;37929;53.218;6.548;2023-04-03T06:30:34;5.53;;;2.17;;
51901;SDS011;37929;53.218;6.548;2023-04-03T06:33:00;5.30;;;2.15;;
51901;SDS011;37929;53.218;6.548;2023-04-03T06:35:26;7.57;;;2.47;;
51901;SDS011;37929;53.218;6.548;2023-04-03T06:37:53;5.90;;;2.40;;
51901;SDS011;37929;53.218;6.548;2023-04-03T06:40:20;5.55;;;2.03;;
51901;SDS011;37929;53.218;6.548;2023-04-03T06:42:48;4.45;;;2.20;;
51901;SDS011;37929;53.218;6.548;2023-04-03T06:45:17;6.68;;;2.97;;
51901;SDS011;37929;53.218;6.548;2023-04-03T06:47:43;4.60;;;2.35;;
51901;SDS011;37929;53.218;6.548;2023-04-03T06:50:11;7.05;;;2.58;;
51901;SDS011;37929;53.218;6.548;2023-04-03T06:52:39;6.82;;;2.35;;
51901;SDS011;37929;53.218;6.548;2023-04-03T06:55:06;6.80;;;2.80;;
51901;SDS011;37929;53.218;6.548;2023-04-03T06:57:32;4.13;;;1.83;;
51901;SDS011;37929;53.218;6.548;2023-04-03T06:59:58;4.47;;;2.78;;
51901;SDS011;37929;53.218;6.548;2023-04-03T07:02:23;6.25;;;2.78;;
51901;SDS011;37929;53.218;6.548;2023-04-03T07:04:49;9.90;;;2.70;;
51901;SDS011;37929;53.218;6.548;2023-04-03T07:07:15;5.40;;;2.42;;
51901;SDS011;37929;53.218;6.548;2023-04-03T07:09:42;5.68;;;2.28;;
51901;SDS011;37929;53.218;6.548;2023-04-03T07:12:08;6.68;;;1.98;;
51901;SDS011;37929;53.218;6.548;2023-04-03T07:14:34;3.60;;;2.10;;
51901;SDS011;37929;53.218;6.548;2023-04-03T07:17:00;4.60;;;2.03;;
51901;SDS011;37929;53.218;6.548;2023-04-03T07:19:25;5.10;;;2.67;;
51901;SDS011;37929;53.218;6.548;2023-04-03T07:21:53;6.00;;;2.58;;
51901;SDS011;37929;53.218;6.548;2023-04-03T07:24:19;6.88;;;2.22;;
51901;SDS011;37929;53.218;6.548;2023-04-03T07:26:48;3.80;;;2.53;;
51901;SDS011;37929;53.218;6.548;2023-04-03T07:29:17;6.77;;;2.40;;
51901;SDS011;37929;53.218;6.548;2023-04-03T07:31:45;4.53;;;2.10;;
51901;SDS011;37929;53.218;6.548;2023-04-03T07:34:10;7.65;;;2.88;;
51901;SDS011;37929;53.218;6.548;2023-04-03T07:36:36;7.60;;;2.40;;
51901;SDS011;37929;53.218;6.548;2023-04-03T07:39:02;6.90;;;2.63;;
51901;SDS011;37929;53.218;6.548;2023-04-03T07:41:28;4.50;;;2.58;;
51901;SDS011;37929;53.218;6.548;2023-04-03T07:43:55;4.50;;;2.20;;
51901;SDS011;37929;53.218;6.548;2023-04-03T07:46:21;9.10;;;2.60;;
51901;SDS011;37929;53.218;6.548;2023-04-03T07:48:48;4.72;;;1.67;;
51901;SDS011;37929;53.218;6.548;2023-04-03T07:51:14;5.18;;;2.00;;
51901;SDS011;37929;53.218;6.548;2023-04-03T07:53:40;6.85;;;2.35;;
51901;SDS011;37929;53.218;6.548;2023-04-03T07:56:06;4.93;;;2.03;;
51901;SDS011;37929;53.218;6.548;2023-04-03T07:58:32;5.07;;;2.33;;
51901;SDS011;37929;53.218;6.548;2023-04-03T08:00:59;5.90;;;2.17;;
51901;SDS011;37929;53.218;6.548;2023-04-03T08:03:25;5.30;;;2.03;;
51901;SDS011;37929;53.218;6.548;2023-04-03T08:05:51;5.90;;;1.98;;
51901;SDS011;37929;53.218;6.548;2023-04-03T08:08:19;4.32;;;1.90;;
51901;SDS011;37929;53.218;6.548;2023-04-03T08:13:36;5.03;;;1.92;;
51901;SDS011;37929;53.218;6.548;2023-04-03T08:16:11;5.45;;;2.22;;
51901;SDS011;37929;53.218;6.548;2023-04-03T08:18:38;5.03;;;1.83;;
51901;SDS011;37929;53.218;6.548;2023-04-03T08:21:08;4.55;;;2.03;;
51901;SDS011;37929;53.218;6.548;2023-04-03T08:23:40;6.05;;;2.05;;
51901;SDS011;37929;53.218;6.548;2023-04-03T08:26:11;4.88;;;2.00;;
51901;SDS011;37929;53.218;6.548;2023-04-03T08:28:38;3.50;;;1.85;;
51901;SDS011;37929;53.218;6.548;2023-04-03T08:31:09;4.40;;;1.95;;
51901;SDS011;37929;53.218;6.548;2023-04-03T08:33:40;3.45;;;1.80;;
51901;SDS011;37929;53.218;6.548;2023-04-03T08:36:07;5.25;;;2.08;;
51901;SDS011;37929;53.218;6.548;2023-04-03T08:38:41;4.80;;;1.95;;
51901;SDS011;37929;53.218;6.548;2023-04-03T08:41:13;3.67;;;1.83;;
51901;SDS011;37929;53.218;6.548;2023-04-03T08:43:56;4.13;;;1.77;;
51901;SDS011;37929;53.218;6.548;2023-04-03T08:46:32;4.88;;;1.77;;
51901;SDS011;37929;53.218;6.548;2023-04-03T08:49:04;4.10;;;1.50;;
51901;SDS011;37929;53.218;6.548;2023-04-03T08:51:40;4.45;;;1.60;;
51901;SDS011;37929;53.218;6.548;2023-04-03T08:54:16;3.33;;;1.35;;
51901;SDS011;37929;53.218;6.548;2023-04-03T08:56:53;3.80;;;1.50;;
51901;SDS011;37929;53.218;6.548;2023-04-03T08:59:29;2.40;;;1.50;;
51901;SDS011;37929;53.218;6.548;2023-04-03T09:02:02;5.90;;;1.67;;
51901;SDS011;37929;53.218;6.548;2023-04-03T09:04:48;4.28;;;1.88;;
51901;SDS011;37929;53.218;6.548;2023-04-03T09:07:15;2.30;;;1.45;;
51901;SDS011;37929;53.218;6.548;2023-04-03T09:09:47;2.60;;;1.30;;
51901;SDS011;37929;53.218;6.548;2023-04-03T09:12:25;2.80;;;1.40;;
51901;SDS011;37929;53.218;6.548;2023-04-03T09:22:57;6.00;;;1.88;;
51901;SDS011;37929;53.218;6.548;2023-04-03T09:25:24;2.58;;;1.63;;
51901;SDS011;37929;53.218;6.548;2023-04-03T09:27:52;2.72;;;1.65;;
51901;SDS011;37929;53.218;6.548;2023-04-03T09:30:20;2.83;;;1.30;;
51901;SDS011;37929;53.218;6.548;2023-04-03T09:32:50;5.90;;;1.90;;
51901;SDS011;37929;53.218;6.548;2023-04-03T09:35:27;2.80;;;1.73;;
51901;SDS011;37929;53.218;6.548;2023-04-03T09:38:17;4.07;;;1.50;;
51901;SDS011;37929;53.218;6.548;2023-04-03T09:40:45;4.57;;;1.75;;
51901;SDS011;37929;53.218;6.548;2023-04-03T09:45:45;3.75;;;1.65;;
51901;SDS011;37929;53.218;6.548;2023-04-03T09:50:38;3.33;;;1.65;;
51901;SDS011;37929;53.218;6.548;2023-04-03T09:53:40;2.97;;;1.55;;
51901;SDS011;37929;53.218;6.548;2023-04-03T09:58:44;4.70;;;2.00;;
51901;SDS011;37929;53.218;6.548;2023-04-03T10:01:27;4.82;;;1.60;;
51901;SDS011;37929;53.218;6.548;2023-04-03T10:06:37;2.42;;;1.50;;
51901;SDS011;37929;53.218;6.548;2023-04-03T10:12:06;3.38;;;1.60;;
51901;SDS011;37929;53.218;6.548;2023-04-03T10:14:40;3.28;;;1.88;;
51901;SDS011;37929;53.218;6.548;2023-04-03T10:25:40;2.53;;;1.13;;
51901;SDS011;37929;53.218;6.548;2023-04-03T10:31:09;2.55;;;1.27;;
51901;SDS011;37929;53.218;6.548;2023-04-03T10:33:51;2.10;;;1.02;;
51901;SDS011;37929;53.218;6.548;2023-04-03T10:39:30;2.75;;;1.35;;
51901;SDS011;37929;53.218;6.548;2023-04-03T10:42:17;2.13;;;1.13;;
51901;SDS011;37929;53.218;6.548;2023-04-03T10:48:14;4.20;;;1.33;;
51901;SDS011;37929;53.218;6.548;2023-04-03T10:53:35;3.03;;;1.45;;
51901;SDS011;37929;53.218;6.548;2023-04-03T10:56:31;5.00;;;1.10;;
51901;SDS011;37929;53.218;6.548;2023-04-03T10:58:52;2.78;;;0.93;;
51901;SDS011;37929;53.218;6.548;2023-04-03T11:01:24;2.13;;;1.00;;
51901;SDS011;37929;53.218;6.548;2023-04-03T11:06:24;1.75;;;1.00;;
51901;SDS011;37929;53.218;6.548;2023-04-03T11:09:00;2.55;;;1.00;;
51901;SDS011;37929;53.218;6.548;2023-04-03T11:11:37;2.55;;;1.05;;
51901;SDS011;37929;53.218;6.548;2023-04-03T11:16:59;2.20;;;1.00;;
51901;SDS011;37929;53.218;6.548;2023-04-03T11:22:47;2.72;;;1.10;;
51901;SDS011;37929;53.218;6.548;2023-04-03T11:25:21;2.70;;;1.13;;
51901;SDS011;37929;53.218;6.548;2023-04-03T11:27:56;6.35;;;1.98;;
51901;SDS011;37929;53.218;6.548;2023-04-03T11:38:49;2.22;;;1.20;;
51901;SDS011;37929;53.218;6.548;2023-04-03T11:41:28;2.05;;;1.02;;
51901;SDS011;37929;53.218;6.548;2023-04-03T12:01:00;2.20;;;0.98;;
51901;SDS011;37929;53.218;6.548;2023-04-03T12:19:39;3.58;;;1.30;;
51901;SDS011;37929;53.218;6.548;2023-04-03T12:22:11;2.97;;;1.13;;
51901;SDS011;37929;53.218;6.548;2023-04-03T12:24:42;1.45;;;1.08;;
51901;SDS011;37929;53.218;6.548;2023-04-03T12:38:15;2.67;;;1.30;;
51901;SDS011;37929;53.218;6.548;2023-04-03T12:44:04;4.03;;;1.10;;
51901;SDS011;37929;53.218;6.548;2023-04-03T12:46:51;3.00;;;1.00;;
51901;SDS011;37929;53.218;6.548;2023-04-03T12:54:58;4.47;;;0.98;;
51901;SDS011;37929;53.218;6.548;2023-04-03T12:57:29;3.03;;;1.25;;
51901;SDS011;37929;53.218;6.548;2023-04-03T12:59:56;1.75;;;1.02;;
51901;SDS011;37929;53.218;6.548;2023-04-03T13:02:43;2.63;;;1.20;;
51901;SDS011;37929;53.218;6.548;2023-04-03T13:05:13;2.55;;;1.20;;
51901;SDS011;37929;53.218;6.548;2023-04-03T13:07:48;2.35;;;1.10;;
51901;SDS011;37929;53.218;6.548;2023-04-03T13:10:42;2.60;;;1.30;;
51901;SDS011;37929;53.218;6.548;2023-04-03T13:13:17;1.95;;;0.93;;
51901;SDS011;37929;53.218;6.548;2023-04-03T13:15:44;2.70;;;1.30;;
51901;SDS011;37929;53.218;6.548;2023-04-03T13:18:24;1.83;;;1.00;;
51901;SDS011;37929;53.218;6.548;2023-04-03T13:20:52;2.00;;;0.93;;
51901;SDS011;37929;53.218;6.548;2023-04-03T13:23:19;1.75;;;1.10;;
51901;SDS011;37929;53.218;6.548;2023-04-03T13:25:52;2.38;;;1.13;;
51901;SDS011;37929;53.218;6.548;2023-04-03T13:28:22;2.55;;;1.10;;
51901;SDS011;37929;53.218;6.548;2023-04-03T13:31:07;1.73;;;0.93;;
51901;SDS011;37929;53.218;6.548;2023-04-03T13:33:51;1.27;;;0.80;;
51901;SDS011;37929;53.218;6.548;2023-04-03T13:36:21;2.13;;;1.15;;
51901;SDS011;37929;53.218;6.548;2023-04-03T13:41:36;1.95;;;1.00;;
51901;SDS011;37929;53.218;6.548;2023-04-03T13:46:54;3.10;;;1.20;;
51901;SDS011;37929;53.218;6.548;2023-04-03T13:49:27;1.85;;;1.20;;
51901;SDS011;37929;53.218;6.548;2023-04-03T13:52:26;1.98;;;1.10;;
51901;SDS011;37929;53.218;6.548;2023-04-03T13:55:09;1.90;;;1.20;;
51901;SDS011;37929;53.218;6.548;2023-04-03T13:57:54;3.03;;;1.15;;
51901;SDS011;37929;53.218;6.548;2023-04-03T14:05:54;2.92;;;1.33;;
51901;SDS011;37929;53.218;6.548;2023-04-03T14:08:26;2.50;;;1.20;;
51901;SDS011;37929;53.218;6.548;2023-04-03T14:10:55;3.30;;;1.25;;
51901;SDS011;37929;53.218;6.548;2023-04-03T14:13:21;1.80;;;1.20;;
51901;SDS011;37929;53.218;6.548;2023-04-03T14:15:47;3.50;;;1.20;;
51901;SDS011;37929;53.218;6.548;2023-04-03T14:18:16;2.28;;;1.25;;
51901;SDS011;37929;53.218;6.548;2023-04-03T14:20:44;2.15;;;1.25;;
51901;SDS011;37929;53.218;6.548;2023-04-03T14:23:10;3.28;;;1.30;;
51901;SDS011;37929;53.218;6.548;2023-04-03T14:25:40;2.30;;;1.20;;
51901;SDS011;37929;53.218;6.548;2023-04-03T14:28:12;2.42;;;0.90;;
51901;SDS011;37929;53.218;6.548;2023-04-03T14:30:44;2.47;;;1.20;;
51901;SDS011;37929;53.218;6.548;2023-04-03T14:33:14;5.05;;;1.50;;
51901;SDS011;37929;53.218;6.548;2023-04-03T14:35:43;2.55;;;1.10;;
51901;SDS011;37929;53.218;6.548;2023-04-03T14:38:24;2.47;;;1.33;;
51901;SDS011;37929;53.218;6.548;2023-04-03T14:40:52;1.50;;;1.10;;
51901;SDS011;37929;53.218;6.548;2023-04-03T14:43:19;3.33;;;1.17;;
51901;SDS011;37929;53.218;6.548;2023-04-03T14:45:45;2.60;;;1.30;;
51901;SDS011;37929;53.218;6.548;2023-04-03T14:48:15;4.07;;;1.20;;
51901;SDS011;37929;53.218;6.548;2023-04-03T14:50:47;2.20;;;1.10;;
51901;SDS011;37929;53.218;6.548;2023-04-03T14:53:14;2.20;;;1.15;;
51901;SDS011;37929;53.218;6.548;2023-04-03T14:55:46;3.42;;;1.65;;
51901;SDS011;37929;53.218;6.548;2023-04-03T14:58:16;2.17;;;1.00;;
51901;SDS011;37929;53.218;6.548;2023-04-03T15:00:45;3.70;;;1.38;;
51901;SDS011;37929;53.218;6.548;2023-04-03T15:03:12;2.67;;;1.20;;
51901;SDS011;37929;53.218;6.548;2023-04-03T15:05:43;2.17;;;1.20;;
51901;SDS011;37929;53.218;6.548;2023-04-03T15:08:28;1.48;;;1.00;;
51901;SDS011;37929;53.218;6.548;2023-04-03T15:10:54;2.78;;;1.10;;
51901;SDS011;37929;53.218;6.548;2023-04-03T15:13:21;1.80;;;1.02;;
51901;SDS011;37929;53.218;6.548;2023-04-03T15:18:42;3.10;;;1.25;;
51901;SDS011;37929;53.218;6.548;2023-04-03T15:21:10;2.47;;;1.33;;
51901;SDS011;37929;53.218;6.548;2023-04-03T15:23:36;1.63;;;1.10;;
51901;SDS011;37929;53.218;6.548;2023-04-03T15:26:14;2.28;;;1.10;;
51901;SDS011;37929;53.218;6.548;2023-04-03T15:28:52;3.15;;;1.27;;
51901;SDS011;37929;53.218;6.548;2023-04-03T15:31:32;3.63;;;1.40;;
51901;SDS011;37929;53.218;6.548;2023-04-03T15:34:05;1.67;;;1.00;;
51901;SDS011;37929;53.218;6.548;2023-04-03T15:36:51;3.53;;;1.23;;
51901;SDS011;37929;53.218;6.548;2023-04-03T15:39:35;3.67;;;1.00;;
51901;SDS011;37929;53.218;6.548;2023-04-03T15:44:36;1.40;;;0.82;;
51901;SDS011;37929;53.218;6.548;2023-04-03T15:47:05;4.43;;;1.30;;
51901;SDS011;37929;53.218;6.548;2023-04-03T15:49:34;1.20;;;0.82;;
51901;SDS011;37929;53.218;6.548;2023-04-03T15:52:03;2.63;;;1.02;;
51901;SDS011;37929;53.218;6.548;2023-04-03T15:54:35;1.80;;;0.90;;
51901;SDS011;37929;53.218;6.548;2023-04-03T15:57:15;1.95;;;1.10;;
51901;SDS011;37929;53.218;6.548;2023-04-03T15:59:44;2.83;;;1.30;;
51901;SDS011;37929;53.218;6.548;2023-04-03T16:02:52;2.10;;;1.08;;
51901;SDS011;37929;53.218;6.548;2023-04-03T16:05:24;2.47;;;1.13;;
51901;SDS011;37929;53.218;6.548;2023-04-03T16:07:50;1.92;;;1.25;;
51901;SDS011;37929;53.218;6.548;2023-04-03T16:10:23;5.03;;;1.42;;
51901;SDS011;37929;53.218;6.548;2023-04-03T16:12:48;1.50;;;1.10;;
51901;SDS011;37929;53.218;6.548;2023-04-03T16:15:15;1.77;;;1.27;;
51901;SDS011;37929;53.218;6.548;2023-04-03T16:17:43;1.95;;;1.10;;
51901;SDS011;37929;53.218;6.548;2023-04-03T16:20:13;2.00;;;1.17;;
51901;SDS011;37929;53.218;6.548;2023-04-03T16:22:49;1.75;;;1.02;;
51901;SDS011;37929;53.218;6.548;2023-04-03T16:25:15;4.35;;;1.65;;
51901;SDS011;37929;53.218;6.548;2023-04-03T16:27:46;3.08;;;1.80;;
51901;SDS011;37929;53.218;6.548;2023-04-03T16:30:12;1.77;;;1.10;;
51901;SDS011;37929;53.218;6.548;2023-04-03T16:32:38;2.35;;;1.38;;
51901;SDS011;37929;53.218;6.548;2023-04-03T16:35:09;2.65;;;1.33;;
51901;SDS011;37929;53.218;6.548;2023-04-03T16:37:36;2.70;;;1.30;;
51901;SDS011;37929;53.218;6.548;2023-04-03T16:40:05;2.53;;;1.20;;
51901;SDS011;37929;53.218;6.548;2023-04-03T16:42:32;2.88;;;1.50;;
51901;SDS011;37929;53.218;6.548;2023-04-03T16:44:58;2.58;;;1.20;;
51901;SDS011;37929;53.218;6.548;2023-04-03T16:47:27;1.75;;;1.10;;
51901;SDS011;37929;53.218;6.548;2023-04-03T16:49:53;2.05;;;1.13;;
51901;SDS011;37929;53.218;6.548;2023-04-03T16:52:19;2.92;;;1.17;;
51901;SDS011;37929;53.218;6.548;2023-04-03T16:54:45;2.92;;;1.10;;
51901;SDS011;37929;53.218;6.548;2023-04-03T16:57:11;3.42;;;1.63;;
51901;SDS011;37929;53.218;6.548;2023-04-03T16:59:40;1.65;;;1.15;;
51901;SDS011;37929;53.218;6.548;2023-04-03T17:02:06;2.63;;;1.30;;
51901;SDS011;37929;53.218;6.548;2023-04-03T17:04:35;3.05;;;1.20;;
51901;SDS011;37929;53.218;6.548;2023-04-03T17:07:03;1.95;;;1.15;;
51901;SDS011;37929;53.218;6.548;2023-04-03T17:09:31;1.92;;;1.10;;
51901;SDS011;37929;53.218;6.548;2023-04-03T17:12:04;2.40;;;1.00;;
51901;SDS011;37929;53.218;6.548;2023-04-03T17:14:30;3.25;;;1.40;;
51901;SDS011;37929;53.218;6.548;2023-04-03T17:16:56;3.22;;;1.65;;
51901;SDS011;37929;53.218;6.548;2023-04-03T17:22:32;3.53;;;1.25;;